FW1830 Weather Reports


Display with metric or nautical units.
time (UTC)temp
F
wind
direction
speed
MPH
gust
MPH
rain 1hr
in
rain 24hr
in
rain mn
in
humidity
%
barometer
mb
20260504050000 70 360 1.0 3.0 0.00 0.00 0.00 67 1017.1
20260504044606 70 83 1.0 6.0 0.00 0.00 0.00 67 1017.3
20260504043059 71 360 3.0 8.0 0.00 0.00 0.00 67 1017.0
20260504041555 71 102 2.0 9.0 0.00 0.00 0.00 67 1017.5
20260504040056 71 360 2.0 9.0 0.00 0.00 0.00 67 1017.6
20260504034559 71 360 2.0 4.0 0.00 0.00 0.00 66 1017.8
20260504033101 71 360 1.0 5.0 0.00 0.00 0.00 64 1017.7
20260504031552 71 360 1.0 5.0 0.00 0.00 0.00 63 1017.6
20260504030051 71 360 1.0 5.0 0.00 0.00 0.00 62 1017.6
20260504024551 71 31 2.0 4.0 0.00 0.00 0.00 61 1017.4
20260504023050 72 360 4.0 9.0 0.00 0.00 0.00 60 1017.2
20260504021549 72 360 2.0 6.0 0.00 0.00 0.00 61 1017.1
20260504020049 71 360 3.0 6.0 0.00 0.00 0.00 62 1016.9
20260504014550 71 360 0.0 0.0 0.00 0.00 0.00 63 1016.9
20260504013051 71 360 1.0 4.0 0.00 0.00 0.00 63 1016.4
20260504011550 72 360 2.0 5.0 0.00 0.00 0.00 62 1016.3
20260504010054 72 360 3.0 5.0 0.00 0.00 0.00 62 1016.1
20260504004547 72 360 3.0 8.0 0.00 0.00 0.00 61 1016.0
20260504003046 73 360 3.0 6.0 0.00 0.00 0.00 61 1015.9
20260504001605 73 360 2.0 5.0 0.00 0.00 0.00 60 1015.6
20260504000045 73 360 4.0 9.0 0.00 0.00 0.00 60 1015.5
20260503234544 74 360 4.0 10.0 0.00 0.00 0.00 61 1015.5
20260503233044 74 360 5.0 11.0 0.00 0.00 0.00 60 1015.5
20260503231543 74 360 5.0 12.0 0.00 0.00 0.00 60 1015.5
20260503230042 74 360 6.0 14.0 0.00 0.00 0.00 60 1015.4
20260503224542 74 360 8.0 14.0 0.00 0.01 0.00 59 1015.4
20260503223043 75 360 6.0 12.0 0.00 0.01 0.00 58 1015.4
20260503221543 75 258 5.0 12.0 0.00 0.01 0.00 58 1015.5
20260503220058 76 360 4.0 15.0 0.00 0.01 0.00 58 1015.4
20260503214540 76 360 4.0 11.0 0.00 0.04 0.00 58 1015.4
20260503213041 77 360 6.0 11.0 0.00 0.04 0.00 56 1015.5
20260503211557 77 360 2.0 13.0 0.00 0.04 0.00 55 1015.6
20260503210038 78 360 3.0 11.0 0.00 0.04 0.00 54 1015.5
20260503204538 79 360 4.0 10.0 0.00 0.07 0.00 51 1015.6
20260503203037 80 32 3.0 10.0 0.00 0.07 0.00 49 1015.7
20260503201536 81 360 2.0 8.0 0.00 0.07 0.00 44 1015.8
20260503200037 81 162 1.0 9.0 0.00 0.07 0.00 44 1016.2
20260503194533 81 360 2.0 10.0 0.00 0.35 0.00 45 1016.4
20260503193036 81 360 3.0 10.0 0.00 0.35 0.00 47 1016.6
20260503191529 79 81 3.0 8.0 0.00 0.35 0.00 48 1016.8
20260503190029 78 71 2.0 10.0 0.00 0.35 0.00 51 1017.2
20260503184528 78 360 4.0 9.0 0.00 0.74 0.00 51 1017.4
20260503183036 77 360 3.0 8.0 0.00 0.74 0.00 52 1017.5
20260503181547 78 78 4.0 9.0 0.00 0.74 0.00 50 1017.6
20260503180027 79 176 3.0 8.0 0.00 0.74 0.00 51 1017.9
20260503174525 77 360 3.0 9.0 0.00 0.74 0.00 52 1017.8
20260503173041 76 141 2.0 10.0 0.00 0.74 0.00 53 1018.0
20260503171522 75 360 4.0 9.0 0.00 0.74 0.00 54 1018.2
20260503081513 65 360 3.0 8.0 0.00 0.74 0.00 83 1015.7